createdAt,value
2018-04-22T00:02:16.456Z,56.13
2018-04-22T00:04:44.024Z,56.35
2018-04-22T00:07:11.610Z,62.30
2018-04-22T00:09:39.295Z,57.70
2018-04-22T00:12:06.969Z,53.03
2018-04-22T00:14:34.553Z,58.28
2018-04-22T00:17:03.656Z,55.20
2018-04-22T00:19:31.237Z,54.90
2018-04-22T00:21:58.842Z,54.65
2018-04-22T00:24:27.205Z,48.78
2018-04-22T00:26:55.579Z,52.28
2018-04-22T00:29:23.251Z,52.22
2018-04-22T00:31:50.836Z,53.45
2018-04-22T00:34:18.414Z,56.65
2018-04-22T00:36:45.976Z,59.95
2018-04-22T00:39:13.554Z,62.03
2018-04-22T00:41:41.126Z,61.95
2018-04-22T00:44:08.710Z,60.55
2018-04-22T00:46:36.313Z,60.97
2018-04-22T00:49:03.922Z,63.42
2018-04-22T00:51:31.566Z,65.62
2018-04-22T00:54:10.887Z,64.90
2018-04-22T00:56:39.256Z,57.88
2018-04-22T00:59:06.835Z,61.42
2018-04-22T01:01:34.641Z,65.93
2018-04-22T01:04:02.257Z,68.28
2018-04-22T01:06:29.870Z,56.67
2018-04-22T01:08:57.430Z,70.95
2018-04-22T01:11:25.001Z,67.20
2018-04-22T01:13:52.561Z,62.40
2018-04-22T01:16:20.141Z,56.22
2018-04-22T01:18:47.701Z,54.28
2018-04-22T01:21:15.287Z,56.53
2018-04-22T01:23:42.909Z,63.35
2018-04-22T01:26:10.557Z,54.65
2018-04-22T01:28:38.221Z,50.67
2018-04-22T01:31:06.725Z,55.58
2018-04-22T01:33:34.366Z,59.17
2018-04-22T01:36:02.040Z,64.80
2018-04-22T01:38:29.597Z,56.88
2018-04-22T01:40:57.185Z,60.22
2018-04-22T01:43:24.745Z,66.75
2018-04-22T01:45:52.336Z,61.75
2018-04-22T01:48:19.921Z,67.82
2018-04-22T01:50:47.553Z,65.35
2018-04-22T01:53:15.126Z,59.35
2018-04-22T01:55:42.788Z,60.50
2018-04-22T01:58:11.212Z,56.58
2018-04-22T02:00:39.573Z,59.92
2018-04-22T02:03:07.150Z,57.03
2018-04-22T02:05:34.711Z,52.72
2018-04-22T02:08:02.331Z,59.78
2018-04-22T02:10:29.994Z,60.65
2018-04-22T02:12:57.666Z,55.25
2018-04-22T02:15:25.253Z,58.42
2018-04-22T02:17:52.867Z,61.92
2018-04-22T02:20:20.456Z,54.90
2018-04-22T02:22:48.800Z,55.42
2018-04-22T02:25:16.404Z,54.60
2018-04-22T02:27:44.033Z,55.10
2018-04-22T02:30:11.650Z,56.63
2018-04-22T02:32:39.324Z,50.58
2018-04-22T02:35:06.945Z,52.03
2018-04-22T02:37:34.523Z,57.80
2018-04-22T02:40:02.120Z,54.00
2018-04-22T02:42:30.446Z,53.35
2018-04-22T02:44:58.022Z,62.85
2018-04-22T02:47:25.581Z,52.83
2018-04-22T02:49:53.189Z,53.00
2018-04-22T02:52:20.795Z,58.42
2018-04-22T02:54:49.280Z,50.95
2018-04-22T02:57:16.893Z,61.33
2018-04-22T02:59:44.550Z,51.97
2018-04-22T03:02:12.250Z,54.25
2018-04-22T03:04:40.161Z,53.20
2018-04-22T03:07:07.730Z,48.30
2018-04-22T03:09:35.314Z,60.55
2018-04-22T03:12:02.976Z,57.35
2018-04-22T03:14:30.552Z,51.95
2018-04-22T03:16:58.126Z,56.53
2018-04-22T03:19:25.681Z,57.40
2018-04-22T03:21:53.282Z,55.08
2018-04-22T03:24:20.921Z,52.30
2018-04-22T03:26:48.650Z,47.75
2018-04-22T03:29:16.977Z,49.83
2018-04-22T03:31:46.213Z,58.13
2018-04-22T03:34:13.777Z,44.80
2018-04-22T03:36:41.349Z,47.25
2018-04-22T03:39:08.907Z,52.47
2018-04-22T03:41:36.487Z,50.67
2018-04-22T03:44:04.053Z,48.47
2018-04-22T03:46:31.629Z,48.17
2018-04-22T03:48:59.181Z,53.50
2018-04-22T03:51:26.809Z,48.90
2018-04-22T03:53:54.381Z,46.90
2018-04-22T03:56:22.038Z,44.08
2018-04-22T03:58:49.666Z,45.47
2018-04-22T04:01:17.246Z,52.85
2018-04-22T04:03:44.847Z,51.67
2018-04-22T04:06:12.402Z,41.28
2018-04-22T04:08:39.981Z,48.92
2018-04-22T04:11:07.533Z,46.33
2018-04-22T04:13:35.148Z,45.12
2018-04-22T04:16:02.721Z,46.95
2018-04-22T04:21:51.611Z,47.40
2018-04-22T04:27:41.456Z,41.97
2018-04-22T04:30:09.150Z,46.45
2018-04-22T04:32:36.745Z,43.87
2018-04-22T04:35:04.525Z,43.65
2018-04-22T04:37:32.186Z,48.97
2018-04-22T04:40:00.625Z,47.72
2018-04-22T04:42:28.234Z,48.22
2018-04-22T04:44:56.589Z,45.47
2018-04-22T04:47:24.150Z,44.35
2018-04-22T04:49:51.721Z,47.38
2018-04-22T04:52:19.325Z,46.85
2018-04-22T04:54:46.896Z,39.20
2018-04-22T04:57:14.445Z,45.58
2018-04-22T04:59:42.049Z,43.05
2018-04-22T05:02:09.717Z,36.85
2018-04-22T05:04:37.306Z,41.20
2018-04-22T05:07:04.926Z,41.55
2018-04-22T05:09:32.565Z,39.58
2018-04-22T05:12:00.973Z,47.05
2018-04-22T05:14:28.567Z,37.38
2018-04-22T05:16:56.154Z,44.88
2018-04-22T05:19:23.751Z,44.97
2018-04-22T05:21:51.618Z,43.97
2018-04-22T05:24:19.327Z,48.63
2018-04-22T05:26:47.077Z,44.90
2018-04-22T05:29:14.671Z,47.05
2018-04-22T05:31:43.060Z,48.17
2018-04-22T05:34:11.529Z,50.28
2018-04-22T05:36:39.167Z,54.67
2018-04-22T05:39:06.748Z,50.50
2018-04-22T05:41:34.352Z,50.70
2018-04-22T05:44:02.202Z,50.05
2018-04-22T05:46:29.783Z,54.85
2018-04-22T05:48:57.357Z,52.95
2018-04-22T05:51:24.914Z,64.30
2018-04-22T05:53:52.598Z,67.53
2018-04-22T05:56:20.180Z,62.62
2018-04-22T05:58:47.791Z,61.03
2018-04-22T06:01:15.377Z,62.17
2018-04-22T06:03:43.794Z,65.40
2018-04-22T06:06:11.446Z,64.82
2018-04-22T06:08:39.152Z,64.65
2018-04-22T06:11:06.725Z,72.18
2018-04-22T06:13:34.618Z,62.75
2018-04-22T06:16:02.190Z,59.65
2018-04-22T06:18:29.790Z,57.15
2018-04-22T06:20:57.352Z,48.90
2018-04-22T06:23:25.026Z,47.17
2018-04-22T06:25:52.622Z,47.53
2018-04-22T06:28:20.909Z,44.95
2018-04-22T06:30:48.473Z,46.13
2018-04-22T06:33:16.081Z,42.03
2018-04-22T06:35:43.699Z,40.03
2018-04-22T06:38:11.407Z,49.30
2018-04-22T06:40:39.790Z,43.72
2018-04-22T06:43:07.357Z,46.93
2018-04-22T06:45:34.950Z,51.03
2018-04-22T06:48:03.286Z,38.80
2018-04-22T06:50:30.889Z,33.77
2018-04-22T06:52:59.306Z,31.73
2018-04-22T06:55:27.673Z,33.17
2018-04-22T06:57:55.333Z,43.23
2018-04-22T07:00:22.913Z,35.23
2018-04-22T07:02:50.589Z,28.40
2018-04-22T07:05:18.233Z,31.60
2018-04-22T07:07:46.311Z,48.70
2018-04-22T07:10:14.205Z,48.37
2018-04-22T07:12:42.641Z,38.80
2018-04-22T07:15:11.169Z,35.53
2018-04-22T07:17:38.898Z,29.20
2018-04-22T07:20:06.563Z,42.43
2018-04-22T07:22:34.189Z,36.70
2018-04-22T07:25:01.763Z,32.10
2018-04-22T07:27:29.349Z,29.60
2018-04-22T07:29:56.915Z,31.57
2018-04-22T07:32:24.493Z,44.30
2018-04-22T07:34:52.053Z,38.93
2018-04-22T07:37:19.630Z,25.70
2018-04-22T07:39:47.210Z,32.57
2018-04-22T07:42:14.845Z,26.90
2018-04-22T07:44:42.485Z,29.60
2018-04-22T07:47:10.413Z,26.80
2018-04-22T07:49:38.501Z,33.00
2018-04-22T07:52:06.946Z,26.70
2018-04-22T07:54:34.921Z,27.27
2018-04-22T07:57:02.609Z,22.73
2018-04-22T07:59:31.067Z,24.03
2018-04-22T08:01:58.665Z,35.47
2018-04-22T08:04:26.342Z,29.73
2018-04-22T08:06:53.901Z,43.67
2018-04-22T08:09:21.485Z,28.60
2018-04-22T08:11:49.057Z,26.10
2018-04-22T08:14:16.752Z,45.00
2018-04-22T08:16:44.597Z,30.00
2018-04-22T08:19:13.723Z,54.20
2018-04-22T08:21:41.774Z,45.73
2018-04-22T08:24:09.494Z,20.20
2018-04-22T08:26:37.657Z,21.60
2018-04-22T08:29:06.875Z,25.53
2018-04-22T08:31:34.654Z,38.53
2018-04-22T08:34:02.289Z,31.23
2018-04-22T08:36:30.594Z,29.60
2018-04-22T08:38:58.353Z,20.73
2018-04-22T08:41:25.975Z,32.93
2018-04-22T08:43:53.577Z,36.87
2018-04-22T08:46:21.910Z,32.47
2018-04-22T08:48:49.509Z,28.33
2018-04-22T08:51:17.094Z,30.07
2018-04-22T08:53:45.479Z,34.50
2018-04-22T08:56:14.146Z,36.80
2018-04-22T08:58:41.778Z,24.43
2018-04-22T09:01:09.584Z,30.10
2018-04-22T09:03:37.363Z,35.87
2018-04-22T09:06:06.676Z,38.47
2018-04-22T09:08:34.281Z,34.50
2018-04-22T09:11:01.957Z,32.53
2018-04-22T09:13:29.517Z,29.50
2018-04-22T09:15:58.437Z,23.17
2018-04-22T09:18:26.111Z,25.60
2018-04-22T09:20:54.923Z,23.90
2018-04-22T09:23:22.484Z,25.07
2018-04-22T09:25:50.073Z,28.20
2018-04-22T09:28:17.685Z,25.20
2018-04-22T09:30:45.343Z,24.00
2018-04-22T09:33:13.098Z,23.37
2018-04-22T09:35:40.731Z,29.77
2018-04-22T09:38:08.547Z,24.60
2018-04-22T09:40:36.382Z,24.40
2018-04-22T09:43:04.293Z,22.70
2018-04-22T09:45:36.025Z,20.00
2018-04-22T09:48:03.828Z,22.93
2018-04-22T09:50:33.218Z,20.50
2018-04-22T09:53:01.925Z,22.80
2018-04-22T09:55:29.959Z,17.83
2018-04-22T09:57:58.766Z,21.40
2018-04-22T10:00:32.393Z,19.20
2018-04-22T10:03:10.062Z,17.57
2018-04-22T10:05:43.369Z,23.20
2018-04-22T10:08:10.945Z,18.23
2018-04-22T10:10:38.509Z,16.90
2018-04-22T10:13:07.836Z,19.60
2018-04-22T10:15:35.468Z,17.80
2018-04-22T10:18:04.193Z,14.50
2018-04-22T10:20:32.884Z,17.70
2018-04-22T10:23:01.640Z,20.17
2018-04-22T10:25:30.868Z,20.80
2018-04-22T10:27:58.892Z,18.47
2018-04-22T10:30:26.709Z,15.30
2018-04-22T10:32:54.404Z,15.47
2018-04-22T10:35:22.090Z,17.80
2018-04-22T10:37:50.478Z,18.00
2018-04-22T10:40:18.052Z,17.20
2018-04-22T10:42:45.610Z,17.90
2018-04-22T10:45:13.197Z,18.63
2018-04-22T10:47:40.762Z,14.60
2018-04-22T10:50:08.343Z,14.80
2018-04-22T10:52:35.953Z,17.50
2018-04-22T10:55:03.596Z,15.23
2018-04-22T10:57:31.264Z,20.10
2018-04-22T10:59:59.096Z,13.10
2018-04-22T11:02:27.271Z,19.20
2018-04-22T11:04:56.535Z,15.53
2018-04-22T11:07:24.141Z,17.10
2018-04-22T11:09:51.787Z,17.27
2018-04-22T11:12:19.417Z,17.60
2018-04-22T11:14:47.842Z,14.47
2018-04-22T11:17:15.417Z,19.23
2018-04-22T11:19:42.990Z,16.93
2018-04-22T11:22:10.693Z,16.90
2018-04-22T11:24:38.246Z,22.00
2018-04-22T11:27:06.017Z,16.40
2018-04-22T11:29:33.631Z,17.50
2018-04-22T11:32:01.339Z,16.03
2018-04-22T11:34:29.174Z,14.50
2018-04-22T11:36:58.888Z,15.93
2018-04-22T11:39:26.652Z,18.17
2018-04-22T11:41:54.392Z,17.60
2018-04-22T11:44:22.022Z,18.70
2018-04-22T11:46:49.671Z,15.90
2018-04-22T11:49:17.354Z,20.50
2018-04-22T11:51:45.758Z,14.53
2018-04-22T11:54:13.317Z,16.13
2018-04-22T11:56:40.917Z,17.77
2018-04-22T11:59:08.537Z,16.03
2018-04-22T12:01:37.466Z,14.37
2018-04-22T12:04:05.227Z,12.47
2018-04-22T12:06:32.980Z,16.30
2018-04-22T12:09:01.348Z,14.87
2018-04-22T12:11:29.381Z,16.80
2018-04-22T12:13:57.320Z,22.33
2018-04-22T12:16:25.024Z,14.07
2018-04-22T12:18:52.760Z,14.20
2018-04-22T12:21:21.122Z,12.60
2018-04-22T12:23:49.513Z,13.30
2018-04-22T12:26:17.069Z,14.87
2018-04-22T12:28:44.640Z,20.43
2018-04-22T12:31:12.276Z,18.23
2018-04-22T12:33:40.620Z,14.50
2018-04-22T12:36:08.277Z,14.80
2018-04-22T12:38:36.527Z,14.40
2018-04-22T12:41:04.873Z,14.70
2018-04-22T12:43:33.303Z,17.13
2018-04-22T12:46:01.650Z,14.57
2018-04-22T12:48:29.221Z,17.70
2018-04-22T12:50:56.814Z,18.00
2018-04-22T12:53:24.381Z,11.87
2018-04-22T12:55:52.616Z,13.97
2018-04-22T12:58:20.194Z,18.27
2018-04-22T13:00:48.533Z,16.90
2018-04-22T13:03:16.854Z,18.13
2018-04-22T13:05:44.430Z,12.97
2018-04-22T13:08:12.017Z,15.13
2018-04-22T13:10:40.365Z,13.90
2018-04-22T13:13:08.120Z,11.67
2018-04-22T13:15:36.020Z,11.30
2018-04-22T13:18:04.173Z,14.70
2018-04-22T13:20:32.094Z,12.33
2018-04-22T13:23:00.503Z,12.77
2018-04-22T13:25:28.854Z,11.70
2018-04-22T13:27:56.410Z,12.70
2018-04-22T13:30:24.005Z,10.80
2018-04-22T13:32:51.566Z,11.40
2018-04-22T13:35:19.125Z,11.97
2018-04-22T13:37:46.697Z,9.63
2018-04-22T13:40:14.327Z,9.53
2018-04-22T13:42:42.685Z,16.13
2018-04-22T13:45:10.280Z,8.83
2018-04-22T13:47:37.961Z,13.87
2018-04-22T13:50:06.832Z,15.53
2018-04-22T13:52:34.621Z,13.97
2018-04-22T13:55:03.399Z,9.13
2018-04-22T13:57:31.480Z,7.23
2018-04-22T13:59:59.751Z,10.43
2018-04-22T14:02:28.194Z,10.57
2018-04-22T14:04:56.697Z,13.20
2018-04-22T14:07:24.555Z,11.17
2018-04-22T14:09:52.427Z,9.63
2018-04-22T14:12:21.028Z,8.90
2018-04-22T14:14:49.480Z,8.77
2018-04-22T14:17:17.065Z,10.63
2018-04-22T14:19:44.630Z,12.90
2018-04-22T14:22:12.755Z,11.20
2018-04-22T14:24:41.085Z,12.73
2018-04-22T14:27:09.417Z,12.80
2018-04-22T14:29:36.989Z,9.13
2018-04-22T14:32:04.559Z,11.40
2018-04-22T14:34:32.216Z,8.57
2018-04-22T14:37:00.278Z,9.70
2018-04-22T14:39:28.797Z,13.90
2018-04-22T14:41:56.797Z,11.77
2018-04-22T14:44:36.262Z,15.63
2018-04-22T14:47:03.862Z,8.43
2018-04-22T14:49:32.478Z,9.93
2018-04-22T14:52:00.894Z,14.77
2018-04-22T14:54:28.513Z,15.03
2018-04-22T14:56:56.444Z,10.73
2018-04-22T14:59:25.106Z,13.80
2018-04-22T15:01:53.532Z,8.93
2018-04-22T15:04:21.165Z,10.57
2018-04-22T15:06:48.749Z,15.60
2018-04-22T15:09:16.326Z,9.60
2018-04-22T15:11:44.654Z,7.47
2018-04-22T15:14:12.261Z,7.40
2018-04-22T15:16:39.822Z,10.47
2018-04-22T15:19:07.377Z,7.93
2018-04-22T15:21:34.968Z,7.90
2018-04-22T15:24:03.299Z,10.00
2018-04-22T15:26:31.653Z,8.43
2018-04-22T15:28:59.273Z,10.77
2018-04-22T15:31:27.280Z,11.80
2018-04-22T15:33:55.457Z,8.73
2018-04-22T15:36:24.017Z,11.90
2018-04-22T15:38:52.514Z,11.20
2018-04-22T15:41:20.240Z,10.77
2018-04-22T15:43:47.912Z,9.97
2018-04-22T15:46:18.537Z,12.20
2018-04-22T15:48:46.322Z,11.60
2018-04-22T15:51:14.022Z,13.20
2018-04-22T15:53:42.378Z,12.27
2018-04-22T15:56:09.945Z,16.10
2018-04-22T15:58:38.285Z,10.37
2018-04-22T16:01:05.853Z,16.63
2018-04-22T16:03:33.537Z,12.60
2018-04-22T16:06:02.722Z,13.33
2018-04-22T16:08:31.121Z,9.20
2018-04-22T16:10:58.784Z,10.60
2018-04-22T16:13:26.816Z,10.30
2018-04-22T16:15:55.760Z,12.17
2018-04-22T16:18:23.767Z,15.40
2018-04-22T16:20:51.616Z,13.30
2018-04-22T16:23:19.229Z,10.60
2018-04-22T16:25:46.825Z,14.63
2018-04-22T16:28:15.196Z,18.80
2018-04-22T16:30:42.763Z,11.13
2018-04-22T16:33:10.342Z,13.23
2018-04-22T16:35:37.912Z,9.23
2018-04-22T16:38:05.489Z,13.03
2018-04-22T16:40:33.254Z,9.77
2018-04-22T16:43:01.795Z,9.67
2018-04-22T16:45:29.545Z,13.20
2018-04-22T16:47:57.659Z,11.33
2018-04-22T16:50:25.768Z,9.57
2018-04-22T16:52:53.886Z,9.97
2018-04-22T16:55:21.589Z,9.60
2018-04-22T16:57:49.705Z,8.90
2018-04-22T17:00:17.962Z,16.93
2018-04-22T17:02:46.309Z,11.47
2018-04-22T17:05:13.902Z,21.40
2018-04-22T17:07:41.468Z,19.20
2018-04-22T17:12:43.770Z,22.60
2018-04-22T17:15:11.357Z,17.57
2018-04-22T17:17:38.925Z,18.70
2018-04-22T17:20:06.514Z,16.63
2018-04-22T17:22:34.177Z,16.83
2018-04-22T17:25:01.865Z,12.50
2018-04-22T17:27:29.466Z,11.40
2018-04-22T17:29:57.969Z,18.40
2018-04-22T17:32:25.828Z,15.17
2018-04-22T17:34:54.422Z,14.37
2018-04-22T17:37:22.309Z,14.20
2018-04-22T17:39:50.797Z,14.57
2018-04-22T17:42:19.209Z,13.00
2018-04-22T17:44:46.816Z,15.30
2018-04-22T17:47:14.410Z,12.70
2018-04-22T17:49:41.978Z,13.17
2018-04-22T17:52:09.561Z,15.37
2018-04-22T17:54:37.133Z,12.03
2018-04-22T17:57:04.718Z,14.17
2018-04-22T17:59:32.277Z,10.90
2018-04-22T18:01:59.949Z,14.60
2018-04-22T18:04:27.981Z,15.10
2018-04-22T18:06:55.919Z,14.97
2018-04-22T18:09:24.683Z,13.03
2018-04-22T18:11:52.554Z,16.80
2018-04-22T18:14:20.975Z,16.23
2018-04-22T18:16:48.609Z,15.47
2018-04-22T18:19:16.204Z,16.67
2018-04-22T18:21:44.412Z,16.20
2018-04-22T18:24:12.005Z,21.60
2018-04-22T18:26:39.595Z,15.37
2018-04-22T18:29:07.949Z,19.53
2018-04-22T18:31:35.786Z,14.33
2018-04-22T18:34:03.366Z,17.97
2018-04-22T18:36:30.925Z,16.73
2018-04-22T18:38:58.553Z,17.90
2018-04-22T18:41:26.838Z,25.73
2018-04-22T18:43:54.694Z,16.53
2018-04-22T18:46:22.621Z,18.00
2018-04-22T18:48:50.285Z,14.97
2018-04-22T18:51:17.903Z,19.93
2018-04-22T18:53:45.489Z,18.43
2018-04-22T18:56:13.061Z,14.43
2018-04-22T18:58:40.645Z,25.00
2018-04-22T19:01:08.201Z,23.67
2018-04-22T19:03:35.764Z,18.17
2018-04-22T19:06:04.018Z,18.70
2018-04-22T19:08:31.577Z,15.50
2018-04-22T19:10:59.193Z,15.33
2018-04-22T19:13:26.890Z,27.23
2018-04-22T19:15:54.726Z,17.93
2018-04-22T19:18:23.242Z,16.47
2018-04-22T19:20:51.963Z,18.47
2018-04-22T19:23:19.697Z,18.63
2018-04-22T19:25:47.297Z,14.80
2018-04-22T19:28:14.861Z,15.57
2018-04-22T19:30:42.474Z,14.07
2018-04-22T19:33:10.040Z,22.87
2018-04-22T19:35:39.834Z,16.63
2018-04-22T19:38:07.393Z,19.60
2018-04-22T19:40:35.837Z,20.17
2018-04-22T19:43:03.402Z,19.50
2018-04-22T19:45:31.088Z,17.97
2018-04-22T19:47:58.684Z,18.83
2018-04-22T19:50:26.381Z,16.77
2018-04-22T19:52:54.385Z,20.63
2018-04-22T19:55:23.387Z,20.13
2018-04-22T19:57:51.727Z,16.60
2018-04-22T20:00:20.128Z,15.00
2018-04-22T20:02:47.885Z,15.30
2018-04-22T20:05:16.245Z,24.33
2018-04-22T20:07:44.489Z,14.87
2018-04-22T20:10:12.830Z,14.70
2018-04-22T20:12:40.427Z,16.70
2018-04-22T20:15:08.162Z,20.05
2018-04-22T20:17:35.753Z,17.98
2018-04-22T20:20:03.317Z,18.50
2018-04-22T20:22:30.953Z,25.17
2018-04-22T20:24:58.554Z,22.35
2018-04-22T20:27:26.278Z,20.60
2018-04-22T20:29:53.926Z,17.67
2018-04-22T20:32:22.194Z,19.98
2018-04-22T20:34:49.883Z,19.23
2018-04-22T20:37:17.576Z,16.33
2018-04-22T20:39:45.176Z,19.00
2018-04-22T20:42:14.201Z,18.92
2018-04-22T20:44:42.409Z,21.83
2018-04-22T20:47:09.978Z,17.50
2018-04-22T20:49:37.565Z,18.52
2018-04-22T20:52:05.130Z,16.33
2018-04-22T20:54:32.785Z,19.43
2018-04-22T20:57:00.410Z,15.03
2018-04-22T20:59:28.068Z,16.77
2018-04-22T21:01:55.693Z,16.37
2018-04-22T21:04:23.462Z,21.50
2018-04-22T21:06:51.357Z,22.00
2018-04-22T21:09:19.325Z,16.75
2018-04-22T21:11:47.672Z,20.67
2018-04-22T21:14:15.261Z,18.20
2018-04-22T21:16:42.832Z,20.83
2018-04-22T21:19:10.417Z,18.80
2018-04-22T21:21:38.097Z,19.92
2018-04-22T21:24:06.474Z,29.25
2018-04-22T21:26:34.060Z,20.48
2018-04-22T21:29:01.650Z,16.20
2018-04-22T21:31:29.299Z,17.33
2018-04-22T21:33:57.860Z,19.08
2018-04-22T21:36:26.421Z,17.33
2018-04-22T21:38:54.932Z,15.25
2018-04-22T21:41:22.828Z,17.92
2018-04-22T21:43:51.106Z,18.80
2018-04-22T21:46:18.813Z,19.95
2018-04-22T21:48:46.389Z,15.73
2018-04-22T21:51:14.072Z,20.23
2018-04-22T21:53:42.413Z,21.87
2018-04-22T21:56:10.006Z,22.25
2018-04-22T21:58:38.182Z,18.12
2018-04-22T22:01:05.773Z,23.38
2018-04-22T22:03:33.374Z,14.55
2018-04-22T22:06:01.769Z,21.42
2018-04-22T22:08:30.142Z,18.60
2018-04-22T22:10:57.912Z,22.20
2018-04-22T22:13:25.772Z,22.20
2018-04-22T22:15:55.123Z,20.90
2018-04-22T22:18:22.940Z,18.75
2018-04-22T22:20:50.622Z,17.83
2018-04-22T22:23:18.383Z,16.73
2018-04-22T22:25:46.793Z,15.48
2018-04-22T22:28:14.377Z,18.33
2018-04-22T22:30:41.947Z,20.17
2018-04-22T22:33:09.537Z,18.75
2018-04-22T22:35:37.100Z,22.70
2018-04-22T22:38:04.689Z,16.05
2018-04-22T22:40:32.361Z,22.37
2018-04-22T22:43:00.889Z,22.62
2018-04-22T22:45:29.521Z,22.25
2018-04-22T22:47:57.164Z,21.70
2018-04-22T22:50:24.864Z,16.02
2018-04-22T22:52:53.066Z,20.12
2018-04-22T22:55:21.134Z,16.95
2018-04-22T22:57:48.877Z,15.05
2018-04-22T23:00:16.507Z,22.83
2018-04-22T23:02:44.134Z,17.37
2018-04-22T23:05:12.476Z,18.10
2018-04-22T23:07:40.046Z,18.17
2018-04-22T23:10:07.738Z,21.73
2018-04-22T23:12:35.310Z,22.52
2018-04-22T23:15:02.898Z,20.55
2018-04-22T23:17:30.538Z,24.50
2018-04-22T23:19:58.812Z,28.98
2018-04-22T23:22:26.486Z,22.10
2018-04-22T23:24:54.430Z,19.03
2018-04-22T23:27:22.964Z,14.50
2018-04-22T23:29:50.753Z,18.07
2018-04-22T23:32:19.246Z,19.13
2018-04-22T23:34:47.826Z,25.57
2018-04-22T23:37:15.545Z,15.50
2018-04-22T23:39:43.205Z,17.87
2018-04-22T23:42:10.781Z,20.77
2018-04-22T23:44:38.367Z,17.13
2018-04-22T23:47:06.040Z,14.13
2018-04-22T23:49:33.707Z,18.83
2018-04-22T23:52:01.439Z,25.03
2018-04-22T23:54:29.064Z,20.40
2018-04-22T23:56:56.766Z,17.43
2018-04-22T23:59:24.413Z,15.27
